Time;durP1;ratioP1;P1;durP2;ratioP2;P2;SDS_P1;SDS_P2;PMS_P1;PMS_P2;Temp;Humidity;BMP_temperature;BMP_pressure;BME280_temperature;BME280_humidity;BME280_pressure;Samples;Min_cycle;Max_cycle;Signal;HPM_P1;HPM_P2
2024/01/07 00:01:11;;;;;;;24.35;11.63;;;;;;;;;;5045120;28;20029;-67
2024/01/07 00:03:36;;;;;;;23.27;12.52;;;;;;;;;;5045405;28;20029;-66
2024/01/07 00:06:02;;;;;;;26.58;11.82;;;;;;;;;;5050340;28;20072;-67
2024/01/07 00:08:27;;;;;;;28.38;12.20;;;;;;;;;;5048830;28;20044;-67
2024/01/07 00:10:53;;;;;;;25.13;11.73;;;;;;;;;;5049309;28;20032;-68
2024/01/07 00:13:18;;;;;;;29.08;12.95;;;;;;;;;;5050172;28;20040;-67
2024/01/07 00:15:44;;;;;;;30.25;13.02;;;;;;;;;;5035007;28;20053;-64
2024/01/07 00:18:09;;;;;;;25.85;12.13;;;;;;;;;;5040649;28;20907;-67
2024/01/07 00:20:34;;;;;;;25.77;11.80;;;;;;;;;;5052503;28;20092;-67
2024/01/07 00:23:00;;;;;;;23.42;11.05;;;;;;;;;;5054182;28;20108;-66
2024/01/07 00:25:25;;;;;;;25.05;11.43;;;;;;;;;;5051925;28;20056;-64
2024/01/07 00:27:51;;;;;;;24.80;11.60;;;;;;;;;;5052264;28;20040;-66
2024/01/07 00:30:19;;;;;;;23.85;11.00;;;;;;;;;;5052163;28;20036;-65
2024/01/07 00:32:44;;;;;;;24.13;11.38;;;;;;;;;;5052609;28;20033;-66
2024/01/07 00:35:09;;;;;;;24.90;11.38;;;;;;;;;;5052341;28;20044;-67
2024/01/07 00:37:35;;;;;;;25.38;12.20;;;;;;;;;;5052903;28;20385;-67
2024/01/07 00:40:00;;;;;;;27.80;12.02;;;;;;;;;;5054660;28;20043;-67
2024/01/07 00:42:26;;;;;;;31.00;13.15;;;;;;;;;;5049970;28;20052;-65
2024/01/07 00:44:51;;;;;;;27.55;11.82;;;;;;;;;;5052935;28;20392;-68
2024/01/07 00:47:17;;;;;;;27.65;12.05;;;;;;;;;;5053749;28;20025;-67
2024/01/07 00:49:42;;;;;;;32.13;12.85;;;;;;;;;;5048156;28;20975;-67
2024/01/07 00:52:08;;;;;;;27.30;12.32;;;;;;;;;;5049229;28;20036;-67
2024/01/07 00:54:34;;;;;;;29.05;13.00;;;;;;;;;;5037896;28;20044;-67
2024/01/07 00:56:59;;;;;;;29.10;12.60;;;;;;;;;;5045738;28;20033;-68
2024/01/07 00:59:24;;;;;;;29.95;13.30;;;;;;;;;;5024493;28;20412;-66
2024/01/07 01:01:50;;;;;;;29.33;12.98;;;;;;;;;;5044846;28;20106;-68
2024/01/07 01:04:15;;;;;;;30.42;13.68;;;;;;;;;;5054390;28;20028;-68
2024/01/07 01:06:41;;;;;;;29.58;13.25;;;;;;;;;;5053366;28;20053;-68
2024/01/07 01:09:06;;;;;;;29.90;13.25;;;;;;;;;;5054349;28;20048;-69
2024/01/07 01:11:31;;;;;;;28.08;12.82;;;;;;;;;;5052812;28;20032;-69
2024/01/07 01:13:57;;;;;;;31.30;14.20;;;;;;;;;;5054147;28;20451;-68
2024/01/07 01:16:23;;;;;;;26.85;12.90;;;;;;;;;;5044617;28;20157;-68
2024/01/07 01:18:49;;;;;;;30.42;13.02;;;;;;;;;;5043756;28;20029;-68
2024/01/07 01:21:15;;;;;;;26.48;13.18;;;;;;;;;;5043949;28;20032;-68
2024/01/07 01:23:40;;;;;;;28.35;13.32;;;;;;;;;;5043800;28;20109;-67
2024/01/07 01:26:05;;;;;;;28.85;13.50;;;;;;;;;;5042273;28;20025;-68
2024/01/07 01:28:31;;;;;;;30.35;13.00;;;;;;;;;;5043634;28;20037;-67
2024/01/07 01:30:57;;;;;;;30.77;14.68;;;;;;;;;;5044882;28;20052;-68
2024/01/07 01:33:22;;;;;;;30.85;13.90;;;;;;;;;;5050876;28;20507;-68
2024/01/07 01:35:47;;;;;;;26.92;12.88;;;;;;;;;;5047251;28;20028;-69
2024/01/07 01:38:13;;;;;;;29.88;13.35;;;;;;;;;;5048275;28;20040;-66
2024/01/07 01:40:38;;;;;;;29.45;13.05;;;;;;;;;;5042774;28;20041;-71
2024/01/07 01:43:04;;;;;;;32.20;14.38;;;;;;;;;;5044000;28;20037;-68
2024/01/07 01:45:29;;;;;;;30.58;13.80;;;;;;;;;;5041086;28;20025;-67
2024/01/07 01:47:55;;;;;;;30.27;14.20;;;;;;;;;;5043070;28;20039;-68
2024/01/07 01:50:21;;;;;;;30.88;13.90;;;;;;;;;;5043615;28;20029;-68
2024/01/07 01:52:47;;;;;;;33.20;14.07;;;;;;;;;;5043239;28;20029;-68
2024/01/07 01:55:13;;;;;;;31.20;13.88;;;;;;;;;;5026915;28;20143;-68
2024/01/07 01:57:39;;;;;;;30.27;13.68;;;;;;;;;;5048691;28;20376;-66
2024/01/07 02:00:06;;;;;;;30.60;13.85;;;;;;;;;;5048914;28;20380;-68
2024/01/07 02:02:34;;;;;;;31.90;14.00;;;;;;;;;;5042795;28;20039;-67
2024/01/07 02:05:05;;;;;;;32.28;14.77;;;;;;;;;;5043198;28;20025;-71
2024/01/07 02:07:31;;;;;;;31.95;13.75;;;;;;;;;;5043785;28;20079;-69
2024/01/07 02:09:56;;;;;;;29.50;13.82;;;;;;;;;;5042912;28;20033;-71
2024/01/07 02:12:22;;;;;;;27.92;13.15;;;;;;;;;;5044578;28;20044;-71
2024/01/07 02:14:47;;;;;;;32.00;14.40;;;;;;;;;;5042647;28;20043;-72
2024/01/07 02:17:13;;;;;;;32.28;14.15;;;;;;;;;;5044176;28;20036;-71
2024/01/07 02:19:38;;;;;;;36.53;15.30;;;;;;;;;;5042824;28;20587;-71
2024/01/07 02:22:04;;;;;;;31.65;13.57;;;;;;;;;;5043608;28;20025;-71
2024/01/07 02:24:30;;;;;;;32.30;14.77;;;;;;;;;;5043234;28;20622;-68
2024/01/07 02:26:56;;;;;;;30.63;14.20;;;;;;;;;;5045271;28;20587;-71
2024/01/07 02:29:21;;;;;;;32.97;14.77;;;;;;;;;;5050709;28;20087;-72
2024/01/07 02:31:47;;;;;;;30.30;14.32;;;;;;;;;;5040216;28;20037;-70
2024/01/07 02:34:12;;;;;;;30.77;14.98;;;;;;;;;;5042889;28;20025;-73
2024/01/07 02:36:37;;;;;;;31.88;14.63;;;;;;;;;;5020785;28;20061;-73
2024/01/07 02:39:03;;;;;;;31.40;14.38;;;;;;;;;;5043102;28;20499;-71
2024/01/07 02:41:28;;;;;;;32.50;14.93;;;;;;;;;;5040440;28;20072;-71
2024/01/07 02:43:54;;;;;;;29.65;14.43;;;;;;;;;;5042571;28;21294;-72
2024/01/07 02:46:20;;;;;;;29.42;14.18;;;;;;;;;;5042414;28;20032;-71
2024/01/07 02:48:45;;;;;;;29.45;13.75;;;;;;;;;;5042136;28;20039;-70
2024/01/07 02:51:11;;;;;;;30.42;13.27;;;;;;;;;;5042849;28;20021;-71
2024/01/07 02:53:36;;;;;;;28.25;13.82;;;;;;;;;;5041892;28;20032;-71
2024/01/07 02:56:01;;;;;;;28.10;13.52;;;;;;;;;;5042014;28;20033;-71
2024/01/07 02:58:27;;;;;;;29.92;13.43;;;;;;;;;;5040225;28;20069;-70
2024/01/07 03:00:52;;;;;;;25.63;13.10;;;;;;;;;;5042753;28;20021;-70
2024/01/07 03:03:18;;;;;;;24.38;12.80;;;;;;;;;;5046786;28;20113;-68
2024/01/07 03:05:43;;;;;;;25.48;13.02;;;;;;;;;;5046277;28;20051;-70
2024/01/07 03:08:08;;;;;;;25.17;13.23;;;;;;;;;;5050665;28;20031;-70
2024/01/07 03:10:34;;;;;;;28.50;13.75;;;;;;;;;;5049387;28;20041;-68
2024/01/07 03:13:00;;;;;;;25.65;12.95;;;;;;;;;;5046807;28;20061;-70
2024/01/07 03:15:26;;;;;;;24.88;12.68;;;;;;;;;;5049700;28;20098;-69
2024/01/07 03:17:51;;;;;;;25.55;13.27;;;;;;;;;;5050015;28;20666;-69
2024/01/07 03:20:16;;;;;;;26.67;13.48;;;;;;;;;;5051479;28;20104;-70
2024/01/07 03:22:42;;;;;;;27.35;14.05;;;;;;;;;;5046769;28;20037;-70
2024/01/07 03:25:07;;;;;;;30.02;13.73;;;;;;;;;;5039378;28;20029;-69
2024/01/07 03:27:33;;;;;;;27.10;12.85;;;;;;;;;;5048954;28;20063;-68
2024/01/07 03:29:58;;;;;;;24.60;12.82;;;;;;;;;;5047795;28;20457;-69
2024/01/07 03:32:24;;;;;;;27.35;13.20;;;;;;;;;;5050205;28;20590;-69
2024/01/07 03:34:49;;;;;;;23.95;12.57;;;;;;;;;;5049189;28;20041;-69
2024/01/07 03:37:15;;;;;;;28.73;14.10;;;;;;;;;;5050607;28;20396;-68
2024/01/07 03:39:40;;;;;;;27.02;13.38;;;;;;;;;;5031168;28;20111;-67
2024/01/07 03:42:11;;;;;;;24.05;12.35;;;;;;;;;;5048896;28;20389;-67
2024/01/07 03:44:37;;;;;;;25.05;12.95;;;;;;;;;;5049300;28;20082;-66
2024/01/07 03:47:02;;;;;;;23.50;12.48;;;;;;;;;;5051504;28;20427;-68
2024/01/07 03:49:27;;;;;;;26.00;12.95;;;;;;;;;;5046287;28;20039;-68
2024/01/07 03:51:53;;;;;;;26.60;13.02;;;;;;;;;;5054348;28;20903;-67
2024/01/07 03:54:18;;;;;;;25.50;12.70;;;;;;;;;;5055014;28;20033;-68
2024/01/07 03:56:43;;;;;;;25.08;13.18;;;;;;;;;;5054855;28;20461;-67
2024/01/07 03:59:09;;;;;;;25.23;13.00;;;;;;;;;;5054915;28;20032;-66
2024/01/07 04:01:34;;;;;;;26.58;13.00;;;;;;;;;;5054641;28;20497;-64
2024/01/07 04:03:59;;;;;;;26.55;12.60;;;;;;;;;;5049418;28;20025;-66
2024/01/07 04:06:25;;;;;;;27.38;13.18;;;;;;;;;;5055143;28;20392;-66
2024/01/07 04:08:50;;;;;;;26.30;13.27;;;;;;;;;;5054619;28;20036;-66
2024/01/07 04:11:15;;;;;;;24.98;13.23;;;;;;;;;;5055233;28;20045;-65
2024/01/07 04:13:41;;;;;;;23.73;11.77;;;;;;;;;;5052747;28;20041;-65
2024/01/07 04:16:18;;;;;;;27.65;13.45;;;;;;;;;;5055542;28;20112;-66
2024/01/07 04:18:45;;;;;;;31.05;13.57;;;;;;;;;;5054203;28;20032;-66
2024/01/07 04:21:11;;;;;;;26.58;12.75;;;;;;;;;;5055141;28;20445;-66
2024/01/07 04:23:36;;;;;;;26.95;12.98;;;;;;;;;;5053547;28;20037;-64
2024/01/07 04:26:01;;;;;;;27.40;12.65;;;;;;;;;;5044457;28;20021;-65
2024/01/07 04:28:27;;;;;;;29.58;13.90;;;;;;;;;;5044912;28;20028;-65
2024/01/07 04:30:52;;;;;;;23.52;11.85;;;;;;;;;;5025833;28;20396;-64
2024/01/07 04:33:18;;;;;;;28.23;13.38;;;;;;;;;;5047147;28;20025;-66
2024/01/07 04:35:43;;;;;;;28.85;13.60;;;;;;;;;;5044954;28;20060;-68
2024/01/07 04:38:09;;;;;;;27.80;13.60;;;;;;;;;;5043747;28;20029;-66
2024/01/07 04:40:34;;;;;;;25.23;13.30;;;;;;;;;;5043636;28;20043;-66
2024/01/07 04:43:00;;;;;;;26.65;13.45;;;;;;;;;;5044457;28;20025;-67
2024/01/07 04:45:25;;;;;;;30.17;13.23;;;;;;;;;;5044880;28;20923;-69
2024/01/07 04:47:50;;;;;;;27.13;13.85;;;;;;;;;;5042476;28;20064;-68
2024/01/07 04:50:19;;;;;;;28.23;13.75;;;;;;;;;;5045852;28;20065;-67
2024/01/07 04:52:46;;;;;;;27.35;13.32;;;;;;;;;;5045054;28;20036;-68
2024/01/07 04:55:11;;;;;;;26.98;13.80;;;;;;;;;;5046486;28;20036;-68
2024/01/07 04:57:36;;;;;;;28.00;13.20;;;;;;;;;;5045899;28;20021;-70
2024/01/07 05:00:03;;;;;;;26.30;13.65;;;;;;;;;;5044749;28;20048;-69
2024/01/07 05:02:29;;;;;;;28.77;14.15;;;;;;;;;;5044398;28;20071;-66
2024/01/07 05:04:54;;;;;;;26.38;11.93;;;;;;;;;;5047199;28;20049;-66
2024/01/07 05:07:19;;;;;;;25.25;12.80;;;;;;;;;;5049186;28;20147;-69
2024/01/07 05:09:45;;;;;;;27.30;12.77;;;;;;;;;;5048783;28;20155;-69
2024/01/07 05:12:10;;;;;;;26.30;13.18;;;;;;;;;;5034222;28;20029;-69
2024/01/07 05:14:37;;;;;;;26.52;13.27;;;;;;;;;;5051717;28;20036;-70
2024/01/07 05:17:02;;;;;;;29.10;13.93;;;;;;;;;;5052374;28;20160;-67
2024/01/07 05:19:28;;;;;;;27.08;13.20;;;;;;;;;;5046261;28;20115;-71
2024/01/07 05:21:53;;;;;;;27.02;13.82;;;;;;;;;;5050517;28;20037;-70
2024/01/07 05:24:19;;;;;;;25.60;13.63;;;;;;;;;;5051402;28;20033;-70
2024/01/07 05:26:45;;;;;;;31.13;14.52;;;;;;;;;;5050681;28;20503;-70
2024/01/07 05:29:11;;;;;;;30.38;14.20;;;;;;;;;;5052910;28;20029;-70
2024/01/07 05:31:38;;;;;;;25.58;13.43;;;;;;;;;;5051252;28;20033;-70
2024/01/07 05:34:03;;;;;;;29.10;14.23;;;;;;;;;;5044065;28;20040;-70
2024/01/07 05:36:29;;;;;;;27.88;14.02;;;;;;;;;;5042629;28;20028;-67
2024/01/07 05:38:54;;;;;;;28.55;14.38;;;;;;;;;;5043583;28;20033;-70
2024/01/07 05:41:20;;;;;;;30.40;14.68;;;;;;;;;;5043710;28;20047;-67
2024/01/07 05:43:45;;;;;;;30.85;14.40;;;;;;;;;;5043701;28;20044;-68
2024/01/07 05:46:12;;;;;;;27.58;14.07;;;;;;;;;;5043249;28;20107;-68
2024/01/07 05:48:49;;;;;;;29.25;14.00;;;;;;;;;;5043867;28;20384;-65
2024/01/07 05:51:15;;;;;;;25.63;13.45;;;;;;;;;;5044070;28;20457;-70
2024/01/07 05:53:41;;;;;;;26.95;14.05;;;;;;;;;;5044437;28;20045;-68
2024/01/07 05:56:07;;;;;;;26.23;13.30;;;;;;;;;;5042042;28;20041;-69
2024/01/07 05:58:32;;;;;;;25.33;12.80;;;;;;;;;;5043540;28;20036;-66
2024/01/07 06:00:58;;;;;;;26.88;13.60;;;;;;;;;;5026745;28;20508;-70
2024/01/07 06:03:23;;;;;;;32.33;15.07;;;;;;;;;;5043192;28;20035;-69
2024/01/07 06:05:48;;;;;;;27.70;13.82;;;;;;;;;;5046662;28;20032;-69
2024/01/07 06:08:14;;;;;;;27.40;14.25;;;;;;;;;;5043558;28;20372;-69
2024/01/07 06:10:40;;;;;;;29.85;14.27;;;;;;;;;;5042414;28;20025;-69
2024/01/07 06:13:05;;;;;;;25.90;13.30;;;;;;;;;;5040238;28;20748;-70
2024/01/07 06:15:30;;;;;;;24.65;12.70;;;;;;;;;;5044720;28;20033;-69
2024/01/07 06:17:56;;;;;;;23.77;12.35;;;;;;;;;;5043262;28;20052;-67
2024/01/07 06:20:21;;;;;;;23.42;12.50;;;;;;;;;;5042866;28;20032;-69
2024/01/07 06:22:47;;;;;;;25.38;12.68;;;;;;;;;;5042239;28;20057;-66
2024/01/07 06:25:12;;;;;;;23.45;12.27;;;;;;;;;;5047219;28;20472;-70
2024/01/07 06:27:41;;;;;;;21.95;11.52;;;;;;;;;;5052523;28;20447;-70
2024/01/07 06:30:07;;;;;;;25.00;11.43;;;;;;;;;;5052102;28;20737;-69
2024/01/07 06:32:33;;;;;;;22.73;11.85;;;;;;;;;;5052787;28;20029;-69
2024/01/07 06:34:59;;;;;;;22.42;11.30;;;;;;;;;;5051251;28;20037;-69
2024/01/07 06:37:25;;;;;;;23.90;11.90;;;;;;;;;;5052556;28;20047;-69
2024/01/07 06:39:50;;;;;;;21.52;11.40;;;;;;;;;;5045327;28;20047;-69
2024/01/07 06:42:16;;;;;;;20.63;11.18;;;;;;;;;;5042115;28;20463;-69
2024/01/07 06:44:41;;;;;;;17.73;9.70;;;;;;;;;;5040823;28;20552;-69
2024/01/07 06:47:07;;;;;;;18.77;10.70;;;;;;;;;;5041827;28;20021;-69
2024/01/07 06:49:32;;;;;;;19.85;10.63;;;;;;;;;;5042879;28;20024;-67
2024/01/07 06:51:57;;;;;;;20.02;10.55;;;;;;;;;;5043062;28;20469;-69
2024/01/07 06:54:23;;;;;;;22.60;11.30;;;;;;;;;;5042098;28;20969;-69
2024/01/07 06:56:48;;;;;;;19.65;10.77;;;;;;;;;;5039842;28;20063;-66
2024/01/07 06:59:14;;;;;;;20.58;9.65;;;;;;;;;;5043250;28;20130;-69
2024/01/07 07:01:39;;;;;;;19.92;10.73;;;;;;;;;;5042519;28;20033;-67
2024/01/07 07:04:05;;;;;;;19.23;10.70;;;;;;;;;;5041551;28;20068;-69
2024/01/07 07:06:30;;;;;;;19.85;10.10;;;;;;;;;;5042544;28;20432;-68
2024/01/07 07:08:55;;;;;;;17.95;9.90;;;;;;;;;;5040143;28;20477;-69
2024/01/07 07:11:21;;;;;;;19.42;9.75;;;;;;;;;;5042737;28;20037;-69
2024/01/07 07:13:46;;;;;;;18.52;10.68;;;;;;;;;;5041946;28;20111;-65
2024/01/07 07:16:12;;;;;;;19.13;10.02;;;;;;;;;;5041031;28;20029;-65
2024/01/07 07:18:37;;;;;;;17.77;9.90;;;;;;;;;;5040571;28;20029;-68
2024/01/07 07:21:03;;;;;;;17.30;9.57;;;;;;;;;;5041085;28;20044;-70
2024/01/07 07:23:28;;;;;;;19.02;10.10;;;;;;;;;;5041292;28;20136;-70
2024/01/07 07:25:54;;;;;;;18.33;10.27;;;;;;;;;;5021441;28;20128;-70
2024/01/07 07:28:19;;;;;;;21.30;10.02;;;;;;;;;;5040727;28;20029;-70
2024/01/07 07:30:44;;;;;;;19.33;9.85;;;;;;;;;;5043038;28;20029;-70
2024/01/07 07:33:10;;;;;;;17.58;9.77;;;;;;;;;;5042111;28;20480;-71
2024/01/07 07:35:35;;;;;;;21.58;10.38;;;;;;;;;;5042524;28;20036;-70
2024/01/07 07:38:01;;;;;;;18.98;10.20;;;;;;;;;;5042198;28;20029;-70
2024/01/07 07:40:26;;;;;;;21.50;10.07;;;;;;;;;;5048825;28;20035;-70
2024/01/07 07:42:51;;;;;;;19.55;10.18;;;;;;;;;;5050831;28;20103;-67
2024/01/07 07:45:17;;;;;;;20.45;10.27;;;;;;;;;;5051167;28;20037;-70
2024/01/07 07:47:44;;;;;;;19.08;9.98;;;;;;;;;;5051213;28;20393;-66
2024/01/07 07:50:10;;;;;;;22.50;10.10;;;;;;;;;;5040519;28;20041;-66
2024/01/07 07:52:36;;;;;;;22.05;10.98;;;;;;;;;;5051707;28;20047;-67
2024/01/07 07:55:02;;;;;;;21.63;11.13;;;;;;;;;;5049605;28;20037;-66
2024/01/07 07:57:28;;;;;;;19.67;10.10;;;;;;;;;;5051105;28;20033;-67
2024/01/07 07:59:54;;;;;;;19.13;10.45;;;;;;;;;;5049231;28;20479;-65
2024/01/07 08:02:20;;;;;;;19.70;10.15;;;;;;;;;;5051637;28;20104;-67
2024/01/07 08:04:47;;;;;;;19.30;9.43;;;;;;;;;;5051102;28;20200;-67
2024/01/07 08:07:12;;;;;;;19.92;9.77;;;;;;;;;;5050200;28;20033;-65
2024/01/07 08:09:37;;;;;;;19.75;9.80;;;;;;;;;;5045726;28;20087;-65
2024/01/07 08:12:04;;;;;;;17.05;8.98;;;;;;;;;;5050439;28;20457;-65
2024/01/07 08:14:30;;;;;;;19.17;9.52;;;;;;;;;;5050474;28;20064;-65
2024/01/07 08:16:56;;;;;;;19.27;9.43;;;;;;;;;;5050522;28;20032;-65
2024/01/07 08:19:21;;;;;;;19.73;9.52;;;;;;;;;;5051258;28;20033;-66
2024/01/07 08:21:47;;;;;;;19.33;10.07;;;;;;;;;;5050189;28;20491;-65
2024/01/07 08:24:12;;;;;;;17.90;9.23;;;;;;;;;;5048813;28;20534;-65
2024/01/07 08:26:38;;;;;;;19.90;9.80;;;;;;;;;;5043028;28;20029;-65
2024/01/07 08:29:04;;;;;;;16.67;8.88;;;;;;;;;;5050453;28;20457;-65
2024/01/07 08:31:30;;;;;;;19.77;9.85;;;;;;;;;;5051169;28;20037;-65
2024/01/07 08:33:55;;;;;;;15.43;9.05;;;;;;;;;;5032468;28;20071;-65
2024/01/07 08:36:21;;;;;;;13.20;7.53;;;;;;;;;;5053274;28;20029;-64
2024/01/07 08:38:46;;;;;;;14.55;8.63;;;;;;;;;;5052730;28;20040;-65
2024/01/07 08:41:11;;;;;;;18.00;9.45;;;;;;;;;;5053893;28;20238;-64
2024/01/07 08:43:38;;;;;;;15.77;9.27;;;;;;;;;;5054637;28;20025;-64
2024/01/07 08:46:04;;;;;;;18.67;9.63;;;;;;;;;;5053138;28;20156;-64
2024/01/07 08:48:30;;;;;;;17.55;9.35;;;;;;;;;;5054361;28;20388;-64
2024/01/07 08:50:55;;;;;;;15.75;9.40;;;;;;;;;;5053837;28;20115;-66
2024/01/07 08:53:22;;;;;;;16.75;8.95;;;;;;;;;;5053911;28;20025;-64
2024/01/07 08:55:48;;;;;;;16.27;8.75;;;;;;;;;;5054487;28;20028;-67
2024/01/07 08:58:14;;;;;;;15.48;8.63;;;;;;;;;;5053356;28;20040;-65
2024/01/07 09:00:39;;;;;;;14.48;8.35;;;;;;;;;;5053990;28;20048;-65
2024/01/07 09:03:06;;;;;;;13.10;8.10;;;;;;;;;;5039804;28;20049;-65
2024/01/07 09:05:32;;;;;;;13.32;8.05;;;;;;;;;;5054276;28;20035;-66
2024/01/07 09:07:57;;;;;;;13.10;7.47;;;;;;;;;;5052643;28;20384;-65
2024/01/07 09:10:24;;;;;;;15.25;7.88;;;;;;;;;;5051726;28;20484;-66
2024/01/07 09:12:50;;;;;;;15.10;8.20;;;;;;;;;;5053910;28;20469;-65
2024/01/07 09:15:18;;;;;;;14.43;8.27;;;;;;;;;;5053010;28;20051;-65
2024/01/07 09:17:43;;;;;;;14.13;8.30;;;;;;;;;;5053898;28;20029;-66
2024/01/07 09:20:10;;;;;;;13.35;7.90;;;;;;;;;;5047238;28;20431;-65
2024/01/07 09:22:36;;;;;;;13.60;7.40;;;;;;;;;;5048696;28;20037;-64
2024/01/07 09:25:06;;;;;;;13.57;7.78;;;;;;;;;;5045004;28;20029;-64
2024/01/07 09:27:32;;;;;;;14.30;7.45;;;;;;;;;;5054890;28;20029;-65
2024/01/07 09:29:58;;;;;;;13.18;7.65;;;;;;;;;;5059745;28;20032;-65
2024/01/07 09:32:23;;;;;;;15.38;7.32;;;;;;;;;;5053338;28;20452;-65
2024/01/07 09:34:48;;;;;;;16.50;8.07;;;;;;;;;;5039132;28;20466;-65
2024/01/07 09:37:14;;;;;;;13.77;7.53;;;;;;;;;;5035350;28;20077;-65
2024/01/07 09:39:40;;;;;;;13.10;7.40;;;;;;;;;;5053294;28;20025;-65
2024/01/07 09:42:15;;;;;;;11.65;6.57;;;;;;;;;;5052916;28;20060;-65
2024/01/07 09:44:43;;;;;;;14.00;7.07;;;;;;;;;;5053686;28;20044;-66
2024/01/07 09:47:14;;;;;;;14.98;7.10;;;;;;;;;;5052369;28;20037;-66
2024/01/07 09:49:40;;;;;;;;;;;;;;;;;;5054088;28;20032;-64
2024/01/07 09:52:05;;;;;;;11.38;5.65;;;;;;;;;;5052820;28;19977;-65
2024/01/07 09:54:32;;;;;;;12.48;5.93;;;;;;;;;;5052705;28;20033;-65
2024/01/07 09:57:03;;;;;;;12.23;6.15;;;;;;;;;;5052657;28;20040;-64
2024/01/07 09:59:29;;;;;;;11.00;5.95;;;;;;;;;;5053162;28;20158;-65
2024/01/07 10:01:55;;;;;;;10.13;5.88;;;;;;;;;;5052827;28;20120;-64
2024/01/07 10:04:21;;;;;;;12.95;6.18;;;;;;;;;;5052680;28;20025;-64
2024/01/07 10:06:48;;;;;;;13.40;6.15;;;;;;;;;;5053114;28;20037;-64
2024/01/07 10:09:15;;;;;;;12.25;6.43;;;;;;;;;;5051231;28;20037;-64
2024/01/07 10:11:41;;;;;;;10.93;6.10;;;;;;;;;;5053114;28;20044;-65
2024/01/07 10:14:06;;;;;;;9.07;5.05;;;;;;;;;;5034705;28;20029;-64
2024/01/07 10:16:33;;;;;;;12.00;5.55;;;;;;;;;;5053092;28;20029;-64
2024/01/07 10:18:58;;;;;;;10.52;5.60;;;;;;;;;;5052163;28;20043;-64
2024/01/07 10:21:24;;;;;;;10.50;5.20;;;;;;;;;;5051972;28;20469;-64
2024/01/07 10:23:50;;;;;;;7.78;4.45;;;;;;;;;;5051929;28;20029;-63
2024/01/07 10:26:15;;;;;;;8.65;4.90;;;;;;;;;;5051376;28;20143;-64
2024/01/07 10:28:43;;;;;;;9.27;4.97;;;;;;;;;;5053071;28;20067;-63
2024/01/07 10:31:09;;;;;;;8.45;4.50;;;;;;;;;;5042939;28;20090;-63
2024/01/07 10:33:34;;;;;;;8.75;5.25;;;;;;;;;;5046815;28;20037;-63
2024/01/07 10:36:05;;;;;;;9.15;5.20;;;;;;;;;;5051467;28;20029;-63
2024/01/07 10:38:35;;;;;;;8.45;4.53;;;;;;;;;;5039375;28;20065;-64
2024/01/07 10:41:01;;;;;;;10.80;5.03;;;;;;;;;;5040719;28;20049;-64
2024/01/07 10:43:29;;;;;;;8.70;4.43;;;;;;;;;;5043294;28;20464;-64
2024/01/07 10:45:55;;;;;;;7.97;4.38;;;;;;;;;;5044131;28;20040;-63
2024/01/07 10:48:24;;;;;;;7.75;4.38;;;;;;;;;;5043836;28;20032;-65
2024/01/07 10:50:53;;;;;;;7.82;4.28;;;;;;;;;;5046222;28;20037;-63
2024/01/07 10:53:22;;;;;;;10.27;4.30;;;;;;;;;;5023320;28;20681;-63
2024/01/07 10:56:03;;;;;;;7.20;4.03;;;;;;;;;;5023995;28;20028;-65
2024/01/07 10:58:30;;;;;;;7.32;4.45;;;;;;;;;;5042009;28;20037;-64
2024/01/07 11:00:56;;;;;;;7.07;4.22;;;;;;;;;;5045397;28;20036;-64
2024/01/07 11:03:35;;;;;;;7.65;4.30;;;;;;;;;;5043761;28;20209;-66
2024/01/07 11:06:16;;;;;;;7.95;4.07;;;;;;;;;;5037172;28;20032;-64
2024/01/07 11:08:50;;;;;;;8.68;4.25;;;;;;;;;;5041390;28;20050;-65
2024/01/07 11:11:31;;;;;;;8.60;4.18;;;;;;;;;;5036000;28;20469;-65
2024/01/07 11:13:57;;;;;;;7.68;4.70;;;;;;;;;;5038359;28;20030;-64
2024/01/07 11:16:42;;;;;;;9.02;4.20;;;;;;;;;;5037056;28;20386;-65
2024/01/07 11:19:07;;;;;;;5.60;3.50;;;;;;;;;;5038243;28;20033;-63
2024/01/07 11:21:33;;;;;;;7.75;3.42;;;;;;;;;;5025628;28;20037;-66
2024/01/07 11:23:58;;;;;;;7.55;3.95;;;;;;;;;;5044218;28;20033;-66
2024/01/07 11:26:24;;;;;;;6.90;3.65;;;;;;;;;;5042365;28;20119;-64
2024/01/07 11:28:57;;;;;;;7.22;3.78;;;;;;;;;;5036911;28;20374;-65
2024/01/07 11:31:41;;;;;;;7.93;3.47;;;;;;;;;;5041997;28;20017;-65
2024/01/07 11:34:07;;;;;;;6.50;3.35;;;;;;;;;;5051090;28;20036;-63
2024/01/07 11:36:35;;;;;;;6.85;3.47;;;;;;;;;;5038369;28;20393;-65
2024/01/07 11:39:02;;;;;;;5.40;3.35;;;;;;;;;;5039827;28;20465;-65
2024/01/07 11:41:32;;;;;;;4.85;3.20;;;;;;;;;;5050865;28;20060;-65
2024/01/07 11:44:00;;;;;;;7.75;3.65;;;;;;;;;;5044801;28;20033;-66
2024/01/07 11:46:27;;;;;;;5.65;3.03;;;;;;;;;;5050167;28;20032;-65
2024/01/07 11:48:58;;;;;;;7.00;3.75;;;;;;;;;;5050731;28;20029;-65
2024/01/07 11:51:30;;;;;;;6.35;3.55;;;;;;;;;;5049235;28;20028;-65
2024/01/07 11:53:57;;;;;;;6.63;3.40;;;;;;;;;;5041491;28;20040;-64
2024/01/07 11:56:24;;;;;;;8.05;3.60;;;;;;;;;;5050400;28;20033;-66
2024/01/07 11:58:49;;;;;;;7.82;3.20;;;;;;;;;;5046267;28;20495;-65
2024/01/07 12:01:16;;;;;;;7.07;3.60;;;;;;;;;;5030574;28;20104;-65
2024/01/07 12:03:43;;;;;;;5.60;3.03;;;;;;;;;;5031769;28;20470;-64
2024/01/07 12:06:13;;;;;;;7.10;3.25;;;;;;;;;;5050812;28;20048;-65
2024/01/07 12:08:38;;;;;;;5.50;3.20;;;;;;;;;;5050445;28;20040;-64
2024/01/07 12:11:05;;;;;;;4.47;3.03;;;;;;;;;;5054308;28;20044;-65
2024/01/07 12:13:31;;;;;;;6.47;3.22;;;;;;;;;;5054852;28;20032;-65
2024/01/07 12:15:57;;;;;;;6.43;3.67;;;;;;;;;;5054991;28;20029;-64
2024/01/07 12:18:24;;;;;;;4.88;3.30;;;;;;;;;;5053774;28;20037;-65
2024/01/07 12:21:00;;;;;;;6.35;3.30;;;;;;;;;;5055127;28;20037;-65
2024/01/07 12:23:26;;;;;;;5.93;3.67;;;;;;;;;;5053582;28;20036;-64
2024/01/07 12:25:57;;;;;;;5.50;3.50;;;;;;;;;;5054801;28;20047;-66
2024/01/07 12:28:23;;;;;;;6.70;3.60;;;;;;;;;;5054178;28;20110;-63
2024/01/07 12:30:49;;;;;;;6.03;3.40;;;;;;;;;;5054512;28;20020;-63
2024/01/07 12:33:19;;;;;;;6.03;3.58;;;;;;;;;;5053881;28;20036;-66
2024/01/07 12:35:47;;;;;;;7.00;3.65;;;;;;;;;;5054967;28;20063;-63
2024/01/07 12:38:13;;;;;;;5.65;3.53;;;;;;;;;;5052828;28;20033;-64
2024/01/07 12:40:39;;;;;;;6.85;3.33;;;;;;;;;;5053659;28;20120;-64
2024/01/07 12:43:06;;;;;;;6.28;3.35;;;;;;;;;;5036800;28;20079;-63
2024/01/07 12:45:32;;;;;;;5.82;3.55;;;;;;;;;;5054236;28;20029;-63
2024/01/07 12:48:01;;;;;;;6.68;3.42;;;;;;;;;;5053223;28;20123;-64
2024/01/07 12:50:29;;;;;;;6.57;3.45;;;;;;;;;;5043173;28;20020;-64
2024/01/07 12:52:55;;;;;;;5.25;3.08;;;;;;;;;;5053417;28;20093;-64
2024/01/07 12:55:22;;;;;;;7.32;3.50;;;;;;;;;;5053277;28;20045;-64
2024/01/07 12:57:47;;;;;;;6.10;3.58;;;;;;;;;;5053741;28;20492;-64
2024/01/07 13:00:13;;;;;;;5.03;3.10;;;;;;;;;;5053537;28;20033;-64
2024/01/07 13:02:39;;;;;;;6.85;3.92;;;;;;;;;;5053746;28;20036;-64
2024/01/07 13:05:06;;;;;;;5.82;3.72;;;;;;;;;;5054026;28;20116;-65
2024/01/07 13:07:32;;;;;;;5.95;3.30;;;;;;;;;;5045660;28;20038;-66
2024/01/07 13:09:57;;;;;;;6.38;3.70;;;;;;;;;;5034523;28;20087;-65
2024/01/07 13:12:22;;;;;;;5.93;3.20;;;;;;;;;;5033747;28;20100;-65
2024/01/07 13:14:48;;;;;;;4.85;2.92;;;;;;;;;;5038932;28;20028;-65
2024/01/07 13:17:14;;;;;;;6.30;3.42;;;;;;;;;;5052951;28;20032;-65
2024/01/07 13:19:40;;;;;;;6.22;3.42;;;;;;;;;;5054246;28;20032;-66
2024/01/07 13:22:05;;;;;;;4.95;3.15;;;;;;;;;;5052562;28;20033;-65
2024/01/07 13:24:30;;;;;;;7.00;3.20;;;;;;;;;;5053386;28;20540;-65
2024/01/07 13:26:56;;;;;;;4.95;3.28;;;;;;;;;;5054022;28;20029;-65
2024/01/07 13:29:22;;;;;;;5.82;3.42;;;;;;;;;;5053186;28;20033;-65
2024/01/07 13:31:47;;;;;;;5.15;3.20;;;;;;;;;;5054053;28;20480;-66
2024/01/07 13:34:14;;;;;;;4.75;2.85;;;;;;;;;;5034974;28;20029;-66
2024/01/07 13:36:39;;;;;;;5.28;2.97;;;;;;;;;;5032981;28;20029;-66
2024/01/07 13:39:07;;;;;;;4.15;2.45;;;;;;;;;;5040341;28;20029;-65
2024/01/07 13:41:33;;;;;;;4.78;2.90;;;;;;;;;;5053186;28;20053;-65
2024/01/07 13:43:59;;;;;;;6.65;3.00;;;;;;;;;;5052474;28;20033;-65
2024/01/07 13:46:25;;;;;;;5.10;2.92;;;;;;;;;;5052651;28;20119;-65
2024/01/07 13:48:51;;;;;;;4.70;3.00;;;;;;;;;;5053727;28;20113;-65
2024/01/07 13:51:17;;;;;;;4.88;3.00;;;;;;;;;;5051766;28;20029;-64
2024/01/07 13:53:43;;;;;;;7.10;3.22;;;;;;;;;;5053427;28;20029;-64
2024/01/07 13:56:08;;;;;;;5.57;3.30;;;;;;;;;;5052119;28;20087;-64
2024/01/07 13:58:34;;;;;;;6.35;3.55;;;;;;;;;;5052357;28;20033;-65
2024/01/07 14:00:59;;;;;;;4.75;2.70;;;;;;;;;;5052564;28;20032;-64
2024/01/07 14:03:25;;;;;;;5.50;3.00;;;;;;;;;;5054155;28;20025;-64
2024/01/07 14:05:51;;;;;;;7.18;3.92;;;;;;;;;;5055556;28;20032;-65
2024/01/07 14:08:16;;;;;;;4.40;2.80;;;;;;;;;;5053511;28;20040;-65
2024/01/07 14:10:42;;;;;;;4.75;2.88;;;;;;;;;;5052454;28;20078;-65
2024/01/07 14:13:07;;;;;;;4.93;2.65;;;;;;;;;;5053303;28;20118;-66
2024/01/07 14:15:33;;;;;;;4.68;2.85;;;;;;;;;;5051810;28;20025;-65
2024/01/07 14:17:58;;;;;;;5.05;2.95;;;;;;;;;;5052711;28;20377;-65
2024/01/07 14:20:23;;;;;;;4.72;2.72;;;;;;;;;;5052149;28;20061;-66